createdAt,value
2023-05-15T00:01:59.367Z,100769.69
2023-05-15T00:04:26.956Z,100767.75
2023-05-15T00:06:54.148Z,100762.59
2023-05-15T00:09:21.196Z,100768.22
2023-05-15T00:11:48.231Z,100761.44
2023-05-15T00:14:15.352Z,100749.75
2023-05-15T00:16:43.220Z,100744.38
2023-05-15T00:19:10.587Z,100747.81
2023-05-15T00:21:37.775Z,100752.38
2023-05-15T00:24:04.830Z,100744.25
2023-05-15T00:26:31.985Z,100738.03
2023-05-15T00:28:59.296Z,100732.91
2023-05-15T00:31:26.301Z,100731.78
2023-05-15T00:33:53.291Z,100728.78
2023-05-15T00:36:22.337Z,100729.28
2023-05-15T00:38:51.102Z,100739.22
2023-05-15T00:41:18.982Z,100720.09
2023-05-15T00:43:47.071Z,100722.47
2023-05-15T00:46:14.437Z,100711.44
2023-05-15T00:48:44.731Z,100710.88
2023-05-15T00:51:12.758Z,100707.63
2023-05-15T00:53:40.521Z,100704.13
2023-05-15T00:56:09.518Z,100701.66
2023-05-15T00:58:38.293Z,100701.59
2023-05-15T01:01:08.253Z,100700.28
2023-05-15T01:03:37.604Z,100691.84
2023-05-15T01:06:05.190Z,100692.09
2023-05-15T01:08:47.136Z,100686.97
2023-05-15T01:11:16.658Z,100691.47
2023-05-15T01:13:44.432Z,100687.66
2023-05-15T01:16:11.659Z,100689.78
2023-05-15T01:18:39.246Z,100690.28
2023-05-15T01:21:06.249Z,100694.56
2023-05-15T01:24:21.039Z,100701.00
2023-05-15T01:27:22.951Z,100705.72
2023-05-15T01:30:04.847Z,100704.03
2023-05-15T01:33:12.190Z,100702.97
2023-05-15T01:36:20.717Z,100686.81
2023-05-15T01:38:57.409Z,100689.97
2023-05-15T01:41:41.459Z,100697.78
2023-05-15T01:44:31.330Z,100690.47
2023-05-15T01:47:13.422Z,100689.91
2023-05-15T01:49:44.114Z,100688.78
2023-05-15T01:52:30.042Z,100680.72
2023-05-15T01:54:58.392Z,100673.19
2023-05-15T01:57:28.232Z,100670.50
2023-05-15T01:59:59.018Z,100667.25
2023-05-15T02:02:27.861Z,100663.19
2023-05-15T02:04:57.047Z,100651.31
2023-05-15T02:07:25.205Z,100643.50
2023-05-15T02:09:53.169Z,100664.97
2023-05-15T02:12:22.241Z,100658.22
2023-05-15T02:14:50.776Z,100661.63
2023-05-15T02:17:21.787Z,100657.34
2023-05-15T02:19:50.519Z,100658.06
2023-05-15T02:22:17.721Z,100647.81
2023-05-15T02:24:45.259Z,100648.53
2023-05-15T02:27:23.117Z,100656.00
2023-05-15T02:30:29.433Z,100655.13
2023-05-15T02:33:28.344Z,100655.13
2023-05-15T02:36:11.519Z,100650.47
2023-05-15T02:38:50.273Z,100657.16
2023-05-15T02:41:18.411Z,100646.09
2023-05-15T02:43:46.803Z,100649.84
2023-05-15T02:46:15.614Z,100644.72
2023-05-15T02:48:44.123Z,100640.66
2023-05-15T02:51:14.164Z,100637.97
2023-05-15T02:53:42.388Z,100627.19
2023-05-15T02:56:10.305Z,100625.31
2023-05-15T02:58:39.115Z,100630.69
2023-05-15T03:01:06.901Z,100624.50
2023-05-15T03:03:34.036Z,100626.38
2023-05-15T03:06:01.403Z,100613.47
2023-05-15T03:08:29.105Z,100619.63
2023-05-15T03:10:56.245Z,100608.59
2023-05-15T03:13:23.238Z,100607.78
2023-05-15T03:15:50.418Z,100609.09
2023-05-15T03:18:18.953Z,100598.88
2023-05-15T03:20:47.690Z,100605.59
2023-05-15T03:23:14.737Z,100599.69
2023-05-15T03:25:41.734Z,100603.97
2023-05-15T03:28:08.827Z,100595.88
2023-05-15T03:30:36.076Z,100585.41
2023-05-15T03:33:06.567Z,100595.88
2023-05-15T03:35:33.660Z,100595.06
2023-05-15T03:38:00.704Z,100594.25
2023-05-15T03:40:27.769Z,100590.75
2023-05-15T03:42:54.976Z,100583.78
2023-05-15T03:45:22.352Z,100588.31
2023-05-15T03:47:49.880Z,100595.06
2023-05-15T03:50:17.896Z,100599.59
2023-05-15T03:52:44.819Z,100594.72
2023-05-15T03:55:12.087Z,100589.13
2023-05-15T03:57:41.799Z,100590.50
2023-05-15T04:00:13.062Z,100582.97
2023-05-15T04:02:41.305Z,100586.22
2023-05-15T04:05:09.690Z,100588.97
2023-05-15T04:07:37.465Z,100582.56
2023-05-15T04:10:05.221Z,100588.25
2023-05-15T04:12:35.109Z,100582.16
2023-05-15T04:15:21.861Z,100586.84
2023-05-15T04:17:52.086Z,100583.19
2023-05-15T04:20:22.407Z,100582.78
2023-05-15T04:22:50.245Z,100576.19
2023-05-15T04:25:18.266Z,100575.00
2023-05-15T04:27:45.314Z,100582.06
2023-05-15T04:30:13.621Z,100581.88
2023-05-15T04:32:41.258Z,100587.34
2023-05-15T04:35:11.700Z,100573.19
2023-05-15T04:37:40.450Z,100578.94
2023-05-15T04:40:09.094Z,100577.38
2023-05-15T04:42:38.561Z,100580.63
2023-05-15T04:45:07.820Z,100576.63
2023-05-15T04:47:35.632Z,100583.44
2023-05-15T04:50:03.048Z,100572.53
2023-05-15T04:52:30.155Z,100565.91
2023-05-15T04:54:57.080Z,100562.03
2023-05-15T04:57:25.859Z,100560.78
2023-05-15T04:59:53.581Z,100547.25
2023-05-15T05:02:25.631Z,100557.38
2023-05-15T05:04:52.647Z,100562.88
2023-05-15T05:07:19.594Z,100541.00
2023-05-15T05:09:46.537Z,100553.56
2023-05-15T05:12:14.139Z,100551.56
2023-05-15T05:14:42.315Z,100547.94
2023-05-15T05:17:10.828Z,100543.19
2023-05-15T05:19:38.045Z,100539.53
2023-05-15T05:22:06.030Z,100533.75
2023-05-15T05:24:35.371Z,100532.47
2023-05-15T05:27:02.481Z,100523.38
2023-05-15T05:29:31.864Z,100513.44
2023-05-15T05:32:29.986Z,100517.47
2023-05-15T05:34:57.205Z,100521.81
2023-05-15T05:37:24.193Z,100532.34
2023-05-15T05:39:51.297Z,100526.69
2023-05-15T05:42:18.295Z,100512.94
2023-05-15T05:44:45.364Z,100515.63
2023-05-15T05:47:12.595Z,100517.78
2023-05-15T05:49:39.952Z,100515.34
2023-05-15T05:52:10.129Z,100511.81
2023-05-15T05:54:37.506Z,100510.72
2023-05-15T05:57:05.230Z,100509.09
2023-05-15T05:59:33.394Z,100510.97
2023-05-15T06:02:00.484Z,100504.19
2023-05-15T06:04:27.616Z,100511.69
2023-05-15T06:06:54.705Z,100508.41
2023-05-15T06:09:21.830Z,100504.59
2023-05-15T06:11:49.128Z,100505.31
2023-05-15T06:14:16.116Z,100506.28
2023-05-15T06:16:43.863Z,100496.50
2023-05-15T06:19:10.903Z,100488.28
2023-05-15T06:21:37.988Z,100476.81
2023-05-15T06:24:05.120Z,100476.13
2023-05-15T06:26:32.363Z,100475.84
2023-05-15T06:28:59.647Z,100472.16
2023-05-15T06:31:27.589Z,100470.03
2023-05-15T06:33:54.751Z,100461.97
2023-05-15T06:36:22.105Z,100451.16
2023-05-15T06:38:49.170Z,100457.94
2023-05-15T06:41:16.422Z,100461.44
2023-05-15T06:43:43.542Z,100464.75
2023-05-15T06:46:10.609Z,100461.22
2023-05-15T06:48:37.858Z,100457.66
2023-05-15T06:51:05.050Z,100449.47
2023-05-15T06:53:32.338Z,100465.31
2023-05-15T06:55:59.649Z,100460.91
2023-05-15T06:58:26.859Z,100444.53
2023-05-15T07:00:55.542Z,100443.22
2023-05-15T07:03:23.375Z,100437.06
2023-05-15T07:05:51.271Z,100436.16
2023-05-15T07:08:18.237Z,100438.94
2023-05-15T07:10:45.703Z,100434.59
2023-05-15T07:13:12.649Z,100434.25
2023-05-15T07:15:40.345Z,100429.19
2023-05-15T07:18:07.553Z,100427.00
2023-05-15T07:20:35.390Z,100428.97
2023-05-15T07:23:03.271Z,100428.19
2023-05-15T07:25:30.384Z,100423.72
2023-05-15T07:27:57.813Z,100419.47
2023-05-15T07:30:26.207Z,100421.06
2023-05-15T07:32:53.827Z,100413.22
2023-05-15T07:35:20.984Z,100405.84
2023-05-15T07:37:48.262Z,100394.59
2023-05-15T07:40:15.651Z,100416.91
2023-05-15T07:42:44.901Z,100406.34
2023-05-15T07:45:12.133Z,100404.56
2023-05-15T07:47:41.632Z,100399.13
2023-05-15T07:50:09.367Z,100406.34
2023-05-15T07:52:36.398Z,100396.41
2023-05-15T07:55:04.309Z,100396.56
2023-05-15T07:57:31.902Z,100390.81
2023-05-15T07:59:59.360Z,100391.97
2023-05-15T08:02:26.584Z,100401.63
2023-05-15T08:04:53.961Z,100390.09
2023-05-15T08:07:21.251Z,100390.59
2023-05-15T08:09:48.210Z,100377.78
2023-05-15T08:12:22.970Z,100374.91
2023-05-15T08:14:53.071Z,100384.41
2023-05-15T08:17:21.194Z,100377.22
2023-05-15T08:19:49.244Z,100373.34
2023-05-15T08:22:16.314Z,100371.91
2023-05-15T08:24:43.508Z,100367.59
2023-05-15T08:27:10.849Z,100369.50
2023-05-15T08:29:39.750Z,100364.22
2023-05-15T08:32:09.289Z,100356.63
2023-05-15T08:34:36.384Z,100364.66
2023-05-15T08:37:04.790Z,100358.22
2023-05-15T08:39:32.379Z,100354.88
2023-05-15T08:42:17.882Z,100357.44
2023-05-15T08:44:45.452Z,100359.19
2023-05-15T08:47:14.656Z,100350.22
2023-05-15T08:50:07.668Z,100346.84
2023-05-15T08:52:35.524Z,100345.72
2023-05-15T08:55:04.788Z,100344.25
2023-05-15T08:57:34.094Z,100343.13
2023-05-15T09:00:03.202Z,100334.31
2023-05-15T09:02:31.025Z,100329.34
2023-05-15T09:04:58.514Z,100327.84
2023-05-15T09:07:26.394Z,100334.09
2023-05-15T09:09:54.613Z,100327.69
2023-05-15T09:12:25.754Z,100319.66
2023-05-15T09:15:08.658Z,100328.94
2023-05-15T09:17:35.814Z,100323.78
2023-05-15T09:20:06.257Z,100323.94
2023-05-15T09:22:37.083Z,100328.25
2023-05-15T09:25:05.727Z,100315.59
2023-05-15T09:27:43.215Z,100317.50
2023-05-15T09:30:11.299Z,100313.50
2023-05-15T09:32:39.027Z,100304.19
2023-05-15T09:35:53.010Z,100318.94
2023-05-15T09:38:20.069Z,100323.09
2023-05-15T09:40:47.229Z,100317.66
2023-05-15T09:43:14.202Z,100320.88
2023-05-15T09:45:41.427Z,100320.22
2023-05-15T09:48:09.934Z,100320.72
2023-05-15T09:50:39.419Z,100323.59
2023-05-15T09:53:06.678Z,100324.41
2023-05-15T09:55:37.052Z,100324.59
2023-05-15T09:58:15.336Z,100323.16
2023-05-15T10:00:47.675Z,100317.38
2023-05-15T10:03:22.249Z,100321.41
2023-05-15T10:05:49.601Z,100319.16
2023-05-15T10:08:27.049Z,100306.22
2023-05-15T10:10:54.678Z,100300.09
2023-05-15T10:13:24.638Z,100297.09
2023-05-15T10:15:52.706Z,100304.84
2023-05-15T10:18:26.142Z,100298.59
2023-05-15T10:20:55.405Z,100304.19
2023-05-15T10:23:23.468Z,100308.06
2023-05-15T10:26:02.406Z,100304.38
2023-05-15T10:28:30.216Z,100311.25
2023-05-15T10:31:01.313Z,100295.88
2023-05-15T10:33:30.732Z,100287.22
2023-05-15T10:35:59.560Z,100292.03
2023-05-15T10:38:27.488Z,100286.59
2023-05-15T10:41:12.923Z,100286.41
2023-05-15T10:43:44.513Z,100282.09
2023-05-15T10:46:12.240Z,100291.72
2023-05-15T10:48:40.127Z,100289.94
2023-05-15T10:51:43.726Z,100279.69
2023-05-15T10:58:32.378Z,100283.66
2023-05-15T11:01:18.450Z,100270.25
2023-05-15T11:04:03.899Z,100252.72
2023-05-15T11:08:04.252Z,100256.50
2023-05-15T11:11:10.040Z,100263.81
2023-05-15T11:14:11.570Z,100259.84
2023-05-15T11:17:12.774Z,100227.78
2023-05-15T11:19:51.775Z,100248.94
2023-05-15T11:22:32.708Z,100248.34
2023-05-15T11:25:06.107Z,100228.31
2023-05-15T11:27:47.007Z,100221.84
2023-05-15T11:30:23.666Z,100228.69
2023-05-15T11:33:08.917Z,100234.13
2023-05-15T11:35:48.353Z,100216.25
2023-05-15T11:38:22.784Z,100203.88
2023-05-15T11:40:56.987Z,100234.75
2023-05-15T11:43:32.404Z,100218.53
2023-05-15T11:46:11.135Z,100189.78
2023-05-15T11:48:49.684Z,100206.66
2023-05-15T11:51:25.836Z,100200.78
2023-05-15T11:53:55.436Z,100188.19
2023-05-15T11:56:28.441Z,100182.59
2023-05-15T11:58:58.446Z,100179.16
2023-05-15T12:01:25.807Z,100177.47
2023-05-15T12:03:54.770Z,100165.47
2023-05-15T12:06:22.859Z,100176.13
2023-05-15T12:08:53.839Z,100163.97
2023-05-15T12:11:25.078Z,100159.69
2023-05-15T12:13:54.603Z,100154.31
2023-05-15T12:16:28.418Z,100151.97
2023-05-15T12:18:58.909Z,100146.19
2023-05-15T12:21:28.999Z,100153.47
2023-05-15T12:26:27.766Z,100143.88
2023-05-15T12:28:56.054Z,100145.75
2023-05-15T12:31:23.757Z,100134.28
2023-05-15T12:33:51.266Z,100130.84
2023-05-15T12:36:22.410Z,100132.09
2023-05-15T12:38:49.594Z,100133.78
2023-05-15T12:41:16.694Z,100133.72
2023-05-15T12:43:43.687Z,100129.72
2023-05-15T12:46:14.725Z,100131.66
2023-05-15T12:48:42.003Z,100122.84
2023-05-15T12:51:09.399Z,100115.00
2023-05-15T12:53:39.857Z,100115.81
2023-05-15T12:56:08.335Z,100117.69
2023-05-15T12:58:35.823Z,100116.53
2023-05-15T13:01:06.280Z,100103.56
2023-05-15T13:03:34.270Z,100101.66
2023-05-15T13:06:07.225Z,100112.47
2023-05-15T13:08:42.819Z,100117.28
2023-05-15T13:11:14.373Z,100112.44
2023-05-15T13:13:47.844Z,100111.03
2023-05-15T13:16:27.059Z,100111.69
2023-05-15T13:18:58.716Z,100111.38
2023-05-15T13:21:26.097Z,100110.25
2023-05-15T13:23:53.441Z,100095.75
2023-05-15T13:26:20.832Z,100100.41
2023-05-15T13:28:48.033Z,100087.81
2023-05-15T13:31:15.166Z,100102.75
2023-05-15T13:33:42.140Z,100120.78
2023-05-15T13:36:09.379Z,100155.94
2023-05-15T13:38:36.552Z,100179.03
2023-05-15T13:41:04.838Z,100171.53
2023-05-15T13:43:32.206Z,100184.47
2023-05-15T13:45:59.158Z,100194.31
2023-05-15T13:48:26.301Z,100193.31
2023-05-15T13:50:53.675Z,100192.41
2023-05-15T13:53:21.332Z,100210.38
2023-05-15T13:55:48.515Z,100204.22
2023-05-15T13:58:15.828Z,100207.84
2023-05-15T14:00:44.578Z,100235.47
2023-05-15T14:03:14.963Z,100222.78
2023-05-15T14:05:42.458Z,100231.16
2023-05-15T14:08:11.181Z,100238.56
2023-05-15T14:10:38.312Z,100252.91
2023-05-15T14:13:05.888Z,100268.34
2023-05-15T14:15:34.235Z,100265.31
2023-05-15T14:18:01.375Z,100270.72
2023-05-15T14:20:30.069Z,100283.97
2023-05-15T14:22:57.310Z,100267.31
2023-05-15T14:25:24.685Z,100266.69
2023-05-15T14:27:51.861Z,100252.09
2023-05-15T14:30:21.590Z,100264.53
2023-05-15T14:32:49.360Z,100259.34
2023-05-15T14:35:16.868Z,100245.44
2023-05-15T14:37:46.713Z,100255.31
2023-05-15T14:40:14.121Z,100238.88
2023-05-15T14:42:41.552Z,100261.22
2023-05-15T14:45:11.680Z,100242.41
2023-05-15T14:47:40.349Z,100231.91
2023-05-15T14:50:10.982Z,100231.66
2023-05-15T14:52:38.127Z,100241.13
2023-05-15T14:55:09.843Z,100232.28
2023-05-15T14:57:46.377Z,100237.22
2023-05-15T15:00:16.546Z,100226.19
2023-05-15T15:02:44.717Z,100219.00
2023-05-15T15:05:12.232Z,100216.66
2023-05-15T15:08:06.105Z,100217.59
2023-05-15T15:10:39.812Z,100216.91
2023-05-15T15:13:10.336Z,100222.72
2023-05-15T15:15:38.184Z,100221.50
2023-05-15T15:18:07.189Z,100215.16
2023-05-15T15:20:38.530Z,100218.38
2023-05-15T15:23:06.813Z,100209.72
2023-05-15T15:25:34.877Z,100206.69
2023-05-15T15:28:03.657Z,100213.09
2023-05-15T15:30:32.311Z,100203.19
2023-05-15T15:33:02.729Z,100203.66
2023-05-15T15:35:30.997Z,100204.63
2023-05-15T15:37:58.631Z,100206.25
2023-05-15T15:40:27.754Z,100195.88
2023-05-15T15:42:56.816Z,100201.09
2023-05-15T15:45:24.230Z,100187.19
2023-05-15T15:47:51.284Z,100194.47
2023-05-15T15:50:18.227Z,100188.34
2023-05-15T15:52:45.218Z,100185.13
2023-05-15T15:55:14.040Z,100172.59
2023-05-15T15:57:41.818Z,100171.94
2023-05-15T16:00:10.529Z,100175.31
2023-05-15T16:02:37.821Z,100175.63
2023-05-15T16:05:05.560Z,100156.88
2023-05-15T16:07:32.615Z,100162.19
2023-05-15T16:10:11.519Z,100168.44
2023-05-15T16:12:40.781Z,100164.75
2023-05-15T16:15:21.731Z,100162.66
2023-05-15T16:17:53.265Z,100161.09
2023-05-15T16:20:21.154Z,100162.38
2023-05-15T16:22:48.208Z,100158.88
2023-05-15T16:25:15.391Z,100171.53
2023-05-15T16:27:42.948Z,100160.97
2023-05-15T16:30:11.917Z,100160.31
2023-05-15T16:32:39.619Z,100175.03
2023-05-15T16:35:07.669Z,100179.34
2023-05-15T16:37:34.772Z,100173.41
2023-05-15T16:40:03.348Z,100181.88
2023-05-15T16:42:35.366Z,100179.78
2023-05-15T16:45:02.439Z,100191.09
2023-05-15T16:47:31.857Z,100187.38
2023-05-15T16:49:59.182Z,100204.09
2023-05-15T16:52:26.440Z,100188.19
2023-05-15T16:54:53.624Z,100197.28
2023-05-15T16:57:20.503Z,100197.25
2023-05-15T16:59:47.936Z,100199.31
2023-05-15T17:02:15.257Z,100192.88
2023-05-15T17:04:42.325Z,100207.75
2023-05-15T17:07:10.657Z,100196.72
2023-05-15T17:18:54.036Z,100202.66
2023-05-15T17:21:40.824Z,100198.63
2023-05-15T17:24:55.075Z,100189.00
2023-05-15T17:27:58.672Z,100206.66
2023-05-15T17:30:58.998Z,100209.31
2023-05-15T17:33:29.437Z,100211.53
2023-05-15T17:35:56.664Z,100197.72
2023-05-15T17:38:23.541Z,100210.00
2023-05-15T17:40:50.489Z,100225.69
2023-05-15T17:43:17.584Z,100220.88
2023-05-15T17:45:45.487Z,100228.00
2023-05-15T17:48:12.866Z,100230.53
2023-05-15T17:50:39.848Z,100227.63
2023-05-15T17:53:06.853Z,100220.59
2023-05-15T17:55:43.660Z,100222.31
2023-05-15T17:58:10.814Z,100217.69
2023-05-15T18:00:38.124Z,100222.63
2023-05-15T18:03:05.201Z,100222.63
2023-05-15T18:05:34.809Z,100225.75
2023-05-15T18:08:06.541Z,100217.75
2023-05-15T18:10:40.040Z,100227.00
2023-05-15T18:14:02.587Z,100204.91
2023-05-15T18:16:58.984Z,100214.47
2023-05-15T18:19:48.994Z,100216.28
2023-05-15T18:23:02.679Z,100231.78
2023-05-15T18:26:11.677Z,100220.03
2023-05-15T18:31:58.858Z,100229.06
2023-05-15T18:35:03.546Z,100224.44
2023-05-15T18:37:50.990Z,100215.91
2023-05-15T18:43:22.885Z,100216.72
2023-05-15T18:46:34.232Z,100238.31
2023-05-15T18:52:06.764Z,100225.38
2023-05-15T18:54:44.857Z,100211.41
2023-05-15T19:16:16.066Z,100240.84
2023-05-15T19:19:25.556Z,100223.47
2023-05-15T19:26:58.436Z,100249.25
2023-05-15T19:32:57.474Z,100252.59
2023-05-15T19:35:37.511Z,100275.22
2023-05-15T19:38:11.570Z,100266.66
2023-05-15T19:40:48.832Z,100271.78
2023-05-15T19:43:16.243Z,100273.13
2023-05-15T19:45:43.838Z,100281.28
2023-05-15T19:48:11.136Z,100283.28
2023-05-15T19:50:39.580Z,100274.53
2023-05-15T19:53:06.846Z,100288.84
2023-05-15T19:55:34.195Z,100277.31
2023-05-15T19:58:01.382Z,100292.75
2023-05-15T20:00:28.601Z,100286.31
2023-05-15T20:02:56.117Z,100287.19
2023-05-15T20:05:23.300Z,100289.72
2023-05-15T20:07:50.284Z,100291.50
2023-05-15T20:10:19.013Z,100298.59
2023-05-15T20:12:47.154Z,100310.28
2023-05-15T20:15:15.146Z,100304.72
2023-05-15T20:17:42.942Z,100306.69
2023-05-15T20:20:11.970Z,100309.47
2023-05-15T20:22:43.730Z,100308.47
2023-05-15T20:25:11.214Z,100319.34
2023-05-15T20:27:38.503Z,100308.09
2023-05-15T20:30:06.952Z,100300.91
2023-05-15T20:32:34.137Z,100305.28
2023-05-15T20:35:01.652Z,100312.63
2023-05-15T20:37:30.484Z,100315.41
2023-05-15T20:39:57.993Z,100300.34
2023-05-15T20:42:29.299Z,100313.59
2023-05-15T20:44:56.402Z,100310.41
2023-05-15T20:47:23.356Z,100301.56
2023-05-15T20:49:50.597Z,100322.94
2023-05-15T20:52:17.534Z,100313.81
2023-05-15T20:54:44.590Z,100308.16
2023-05-15T20:57:11.713Z,100313.84
2023-05-15T20:59:38.595Z,100320.63
2023-05-15T21:02:05.968Z,100300.75
2023-05-15T21:04:32.986Z,100309.06
2023-05-15T21:06:59.995Z,100307.75
2023-05-15T21:09:27.080Z,100302.63
2023-05-15T21:11:54.075Z,100305.06
2023-05-15T21:14:21.012Z,100314.78
2023-05-15T21:16:48.301Z,100308.06
2023-05-15T21:19:15.604Z,100317.81
2023-05-15T21:21:42.722Z,100311.59
2023-05-15T21:24:09.677Z,100321.88
2023-05-15T21:26:36.527Z,100324.59
2023-05-15T21:29:03.860Z,100319.75
2023-05-15T21:31:31.280Z,100329.75
2023-05-15T21:33:58.502Z,100327.34
2023-05-15T21:36:25.618Z,100329.50
2023-05-15T21:38:52.510Z,100322.22
2023-05-15T21:41:19.564Z,100321.97
2023-05-15T21:43:46.521Z,100321.97
2023-05-15T21:46:13.906Z,100324.69
2023-05-15T21:48:41.298Z,100326.56
2023-05-15T21:51:08.481Z,100321.44
2023-05-15T21:53:35.525Z,100333.88
2023-05-15T21:56:03.972Z,100331.16
2023-05-15T21:58:31.853Z,100328.47
2023-05-15T22:00:59.183Z,100330.91
2023-05-15T22:03:26.257Z,100337.38
2023-05-15T22:05:53.865Z,100339.25
2023-05-15T22:08:21.766Z,100346.03
2023-05-15T22:10:49.543Z,100336.84
2023-05-15T22:13:16.685Z,100339.53
2023-05-15T22:15:43.887Z,100344.41
2023-05-15T22:18:11.118Z,100340.38
2023-05-15T22:20:39.027Z,100333.91
2023-05-15T22:23:06.723Z,100349.00
2023-05-15T22:25:33.873Z,100343.38
2023-05-15T22:28:00.906Z,100344.19
2023-05-15T22:30:28.363Z,100347.41
2023-05-15T22:32:55.846Z,100351.44
2023-05-15T22:35:22.917Z,100333.63
2023-05-15T22:37:50.029Z,100340.34
2023-05-15T22:40:17.495Z,100342.47
2023-05-15T22:42:44.462Z,100348.13
2023-05-15T22:45:12.074Z,100345.13
2023-05-15T22:47:39.010Z,100341.34
2023-05-15T22:50:07.828Z,100345.63
2023-05-15T22:52:35.196Z,100346.16
2023-05-15T22:55:02.149Z,100345.84
2023-05-15T22:57:29.560Z,100358.53
2023-05-15T22:59:56.896Z,100362.81
2023-05-15T23:02:23.997Z,100360.63
2023-05-15T23:04:51.045Z,100364.94
2023-05-15T23:07:17.944Z,100361.97
2023-05-15T23:09:44.988Z,100364.38
2023-05-15T23:12:12.233Z,100370.81
2023-05-15T23:14:40.194Z,100363.75
2023-05-15T23:17:07.206Z,100367.56
2023-05-15T23:19:34.371Z,100367.31
2023-05-15T23:22:02.220Z,100361.56
2023-05-15T23:24:29.750Z,100370.50
2023-05-15T23:26:57.433Z,100361.63
2023-05-15T23:29:24.300Z,100370.78
2023-05-15T23:31:51.411Z,100381.81
2023-05-15T23:34:18.653Z,100375.59
2023-05-15T23:36:45.623Z,100379.69
2023-05-15T23:39:12.694Z,100372.66
2023-05-15T23:41:39.725Z,100375.94
2023-05-15T23:44:06.789Z,100373.53
2023-05-15T23:46:35.618Z,100380.81
2023-05-15T23:49:02.883Z,100376.78
2023-05-15T23:51:29.886Z,100381.16
2023-05-15T23:53:56.861Z,100378.22
2023-05-15T23:56:23.725Z,100375.78
2023-05-15T23:58:50.749Z,100383.91
